Time;durP1;ratioP1;P1;durP2;ratioP2;P2;SDS_P1;SDS_P2;PMS_P1;PMS_P2;Temp;Humidity;BMP_temperature;BMP_pressure;BME280_temperature;BME280_humidity;BME280_pressure;Samples;Min_cycle;Max_cycle;Signal;HPM_P1;HPM_P2
2023/11/24 00:01:08;;;;;;;6.70;1.20;;;8.10;99.90;;;;;;5033736;28;20525;-68
2023/11/24 00:03:36;;;;;;;6.60;0.93;;;8.10;99.90;;;;;;5045855;28;20432;-67
2023/11/24 00:06:06;;;;;;;5.90;0.77;;;8.00;99.90;;;;;;5046469;28;20491;-71
2023/11/24 00:08:35;;;;;;;6.10;0.90;;;8.00;99.90;;;;;;5046162;28;20490;-68
2023/11/24 00:11:03;;;;;;;6.30;0.93;;;7.90;99.90;;;;;;5042044;28;20448;-68
2023/11/24 00:13:31;;;;;;;6.53;0.90;;;7.90;99.90;;;;;;5046587;28;20506;-64
2023/11/24 00:16:04;;;;;;;6.43;0.80;;;7.90;99.90;;;;;;5048033;28;20447;-67
2023/11/24 00:18:33;;;;;;;6.27;1.00;;;7.80;99.90;;;;;;5046824;28;20813;-67
2023/11/24 00:21:06;;;;;;;6.13;0.90;;;7.80;99.90;;;;;;5047703;28;20440;-68
2023/11/24 00:23:34;;;;;;;6.40;0.90;;;7.80;99.90;;;;;;5047427;28;20462;-67
2023/11/24 00:26:04;;;;;;;6.30;0.90;;;7.80;99.90;;;;;;5048171;28;20483;-67
2023/11/24 00:28:31;;;;;;;6.07;1.00;;;7.80;99.90;;;;;;5047636;28;20461;-68
2023/11/24 00:31:02;;;;;;;6.50;1.00;;;7.80;99.90;;;;;;5047926;28;20474;-66
2023/11/24 00:33:30;;;;;;;5.90;0.60;;;7.80;99.90;;;;;;5047434;28;20554;-67
2023/11/24 00:36:00;;;;;;;6.27;0.90;;;7.80;99.90;;;;;;5048055;28;20446;-67
2023/11/24 00:38:28;;;;;;;6.10;0.87;;;7.80;99.90;;;;;;5051688;28;20443;-67
2023/11/24 00:40:56;;;;;;;6.07;0.90;;;7.80;99.90;;;;;;5051921;28;20873;-67
2023/11/24 00:43:26;;;;;;;7.60;0.90;;;7.80;99.90;;;;;;5051609;28;20440;-67
2023/11/24 00:45:54;;;;;;;6.73;1.00;;;7.80;99.90;;;;;;5051425;28;21004;-66
2023/11/24 00:48:24;;;;;;;6.53;0.90;;;7.80;99.90;;;;;;5051512;28;20891;-67
2023/11/24 00:50:52;;;;;;;6.00;0.80;;;7.80;99.90;;;;;;5051487;28;20471;-66
2023/11/24 00:53:21;;;;;;;6.30;0.93;;;7.80;99.90;;;;;;5051619;28;20447;-66
2023/11/24 00:55:49;;;;;;;6.17;1.13;;;7.80;99.90;;;;;;5051243;28;20438;-66
2023/11/24 00:58:17;;;;;;;5.77;0.60;;;7.80;99.90;;;;;;5050999;28;20457;-67
2023/11/24 01:00:45;;;;;;;7.53;1.03;;;7.90;99.90;;;;;;5051490;28;20529;-66
2023/11/24 01:03:12;;;;;;;6.40;0.93;;;7.90;99.90;;;;;;5050971;28;20958;-68
2023/11/24 01:05:42;;;;;;;7.67;0.80;;;7.90;99.90;;;;;;5051183;28;21010;-67
2023/11/24 01:08:10;;;;;;;6.00;0.80;;;7.90;99.90;;;;;;5050849;28;20472;-66
2023/11/24 01:10:38;;;;;;;5.83;0.73;;;7.90;99.90;;;;;;5050865;28;20981;-66
2023/11/24 01:13:05;;;;;;;6.33;0.90;;;7.90;99.90;;;;;;5051045;28;20948;-66
2023/11/24 01:15:33;;;;;;;7.50;0.87;;;7.90;99.90;;;;;;5050599;28;20484;-67
2023/11/24 01:18:02;;;;;;;6.10;0.80;;;8.00;99.90;;;;;;5050887;28;20526;-66
2023/11/24 01:20:30;;;;;;;9.10;0.80;;;8.00;99.90;;;;;;5050906;28;20471;-66
2023/11/24 01:23:00;;;;;;;6.13;0.80;;;8.00;99.90;;;;;;5051120;28;20456;-66
2023/11/24 01:25:28;;;;;;;6.43;0.90;;;8.10;99.90;;;;;;5050472;28;20490;-66
2023/11/24 01:27:56;;;;;;;6.20;1.30;;;8.10;99.90;;;;;;5050590;28;20843;-66
2023/11/24 01:30:24;;;;;;;5.53;0.50;;;8.10;99.90;;;;;;5050462;28;20475;-65
2023/11/24 01:32:52;;;;;;;6.10;0.80;;;8.20;99.90;;;;;;5050487;28;20456;-67
2023/11/24 01:35:20;;;;;;;6.00;0.80;;;8.20;99.90;;;;;;5049713;28;20446;-66
2023/11/24 01:37:48;;;;;;;6.67;0.60;;;8.30;99.90;;;;;;5050135;28;20543;-66
2023/11/24 01:40:18;;;;;;;6.87;0.80;;;8.30;99.90;;;;;;5050364;28;20464;-66
2023/11/24 01:42:46;;;;;;;5.90;0.80;;;8.30;99.90;;;;;;5054778;28;20470;-67
2023/11/24 01:45:14;;;;;;;5.67;0.60;;;8.40;99.90;;;;;;5050024;28;20486;-65
2023/11/24 01:47:42;;;;;;;5.90;0.80;;;8.40;99.90;;;;;;5049027;28;20456;-67
2023/11/24 01:50:11;;;;;;;6.27;0.80;;;8.40;99.90;;;;;;5057770;28;20461;-67
2023/11/24 01:52:41;;;;;;;6.60;0.60;;;8.40;99.90;;;;;;5050172;28;20470;-67
2023/11/24 01:55:12;;;;;;;6.00;0.80;;;8.40;99.90;;;;;;5054417;28;20481;-67
2023/11/24 01:57:43;;;;;;;6.27;0.77;;;8.40;99.90;;;;;;5049907;28;20938;-67
2023/11/24 02:00:13;;;;;;;5.70;0.60;;;8.50;99.90;;;;;;5049819;28;20990;-67
2023/11/24 02:02:42;;;;;;;6.63;0.70;;;8.50;99.90;;;;;;5050114;28;20480;-66
2023/11/24 02:05:10;;;;;;;6.10;0.90;;;8.40;99.90;;;;;;5049663;28;20479;-67
2023/11/24 02:07:38;;;;;;;5.73;0.60;;;8.40;99.90;;;;;;5049680;28;20448;-68
2023/11/24 02:10:07;;;;;;;5.90;0.73;;;8.40;99.90;;;;;;5049781;28;20860;-66
2023/11/24 02:12:35;;;;;;;6.90;0.60;;;8.40;99.90;;;;;;5050092;28;20576;-67
2023/11/24 02:15:07;;;;;;;6.37;0.70;;;8.40;99.90;;;;;;5049352;28;20447;-66
2023/11/24 02:17:35;;;;;;;5.73;0.60;;;8.50;99.90;;;;;;5049629;28;20446;-68
2023/11/24 02:20:08;;;;;;;5.83;0.77;;;8.40;99.90;;;;;;5049815;28;20495;-67
2023/11/24 02:22:42;;;;;;;6.13;0.90;;;8.50;99.90;;;;;;5049569;28;20472;-68
2023/11/24 02:25:11;;;;;;;7.80;0.83;;;8.50;99.90;;;;;;5049524;28;20486;-68
2023/11/24 02:27:39;;;;;;;5.87;0.70;;;8.40;99.90;;;;;;5049421;28;20455;-68
2023/11/24 02:30:09;;;;;;;5.80;0.60;;;8.40;99.90;;;;;;5049245;28;20464;-68
2023/11/24 02:32:37;;;;;;;6.00;0.60;;;8.60;99.90;;;;;;5049144;28;21848;-67
2023/11/24 02:35:05;;;;;;;6.30;0.90;;;8.70;99.90;;;;;;5048877;28;20445;-67
2023/11/24 02:37:33;;;;;;;6.10;0.60;;;8.80;99.90;;;;;;5049277;28;20454;-69
2023/11/24 02:40:04;;;;;;;5.73;0.70;;;8.80;99.90;;;;;;5049301;28;20456;-67
2023/11/24 02:42:32;;;;;;;5.77;0.57;;;8.90;99.90;;;;;;5049314;28;20944;-67
2023/11/24 02:45:00;;;;;;;6.17;0.80;;;8.90;99.90;;;;;;5048897;28;20847;-67
2023/11/24 02:47:28;;;;;;;5.93;1.00;;;8.90;99.90;;;;;;5049133;28;20539;-68
2023/11/24 02:49:56;;;;;;;8.70;1.13;;;9.00;99.90;;;;;;5051099;28;21008;-68
2023/11/24 02:52:24;;;;;;;6.00;0.77;;;8.90;99.90;;;;;;5053053;28;20456;-67
2023/11/24 02:54:52;;;;;;;6.10;0.67;;;8.90;99.90;;;;;;5059601;28;20449;-67
2023/11/24 02:57:22;;;;;;;5.90;0.70;;;8.90;99.90;;;;;;5053659;28;20443;-67
2023/11/24 02:59:51;;;;;;;5.87;0.67;;;8.90;99.90;;;;;;5048903;28;20481;-67
2023/11/24 03:02:18;;;;;;;6.80;0.70;;;8.90;99.90;;;;;;5048644;28;20452;-66
2023/11/24 03:04:46;;;;;;;5.70;0.60;;;8.80;99.90;;;;;;5048557;28;20505;-67
2023/11/24 03:07:15;;;;;;;5.97;0.90;;;8.80;99.90;;;;;;5048918;28;20483;-66
2023/11/24 03:09:43;;;;;;;5.70;0.60;;;8.70;99.90;;;;;;5048220;28;20478;-67
2023/11/24 03:12:11;;;;;;;6.03;0.80;;;8.70;99.90;;;;;;5048808;28;20449;-65
2023/11/24 03:14:42;;;;;;;6.17;0.87;;;8.60;99.90;;;;;;5047990;28;20815;-68
2023/11/24 03:17:11;;;;;;;6.00;0.80;;;8.50;99.90;;;;;;5048542;28;20439;-70
2023/11/24 03:19:39;;;;;;;6.47;0.87;;;8.40;99.90;;;;;;5048321;28;20483;-68
2023/11/24 03:22:07;;;;;;;5.93;0.77;;;8.40;99.90;;;;;;5048681;28;20833;-67
2023/11/24 03:24:36;;;;;;;6.27;0.70;;;8.30;99.90;;;;;;5048151;28;20472;-67
2023/11/24 03:27:04;;;;;;;5.83;0.60;;;8.20;99.90;;;;;;5048159;28;20480;-67
2023/11/24 03:29:35;;;;;;;6.30;0.80;;;8.10;99.90;;;;;;5048263;28;20472;-67
2023/11/24 03:32:05;;;;;;;6.17;0.80;;;8.10;99.90;;;;;;5048582;28;20479;-67
2023/11/24 03:34:33;;;;;;;5.80;0.67;;;8.10;99.90;;;;;;5047825;28;20510;-66
2023/11/24 03:37:01;;;;;;;6.00;0.70;;;8.00;99.90;;;;;;5048431;28;20440;-67
2023/11/24 03:39:29;;;;;;;5.90;0.63;;;8.00;99.90;;;;;;5048079;28;20468;-67
2023/11/24 03:41:57;;;;;;;6.00;0.80;;;8.00;99.90;;;;;;5048915;28;20482;-66
2023/11/24 03:44:25;;;;;;;5.73;0.57;;;8.00;99.90;;;;;;5050780;28;20450;-68
2023/11/24 03:46:53;;;;;;;5.80;0.70;;;8.00;99.90;;;;;;5048206;28;20487;-67
2023/11/24 03:49:22;;;;;;;6.53;0.60;;;8.10;99.90;;;;;;5047898;28;20467;-67
2023/11/24 03:51:50;;;;;;;5.50;0.43;;;8.20;99.90;;;;;;5048218;28;20444;-67
2023/11/24 03:54:21;;;;;;;6.20;0.60;;;8.20;99.90;;;;;;5047484;28;20448;-66
2023/11/24 03:56:49;;;;;;;6.10;0.60;;;8.30;99.90;;;;;;5047848;28;20437;-67
2023/11/24 03:59:17;;;;;;;5.80;0.60;;;8.30;99.90;;;;;;5047691;28;20480;-67
2023/11/24 04:01:45;;;;;;;5.60;0.50;;;8.30;99.90;;;;;;5048281;28;20498;-67
2023/11/24 04:04:13;;;;;;;6.10;0.70;;;8.30;99.90;;;;;;5047806;28;20444;-66
2023/11/24 04:06:43;;;;;;;5.70;0.50;;;8.30;99.90;;;;;;5047931;28;20904;-67
2023/11/24 04:09:11;;;;;;;5.60;0.50;;;8.40;99.90;;;;;;5047778;28;20494;-64
2023/11/24 04:11:39;;;;;;;5.70;0.57;;;8.30;99.90;;;;;;5049387;28;20452;-65
2023/11/24 04:14:07;;;;;;;6.87;0.60;;;8.30;99.90;;;;;;5051591;28;20514;-67
2023/11/24 04:16:36;;;;;;;5.67;0.50;;;8.30;99.90;;;;;;5051918;28;20451;-65
2023/11/24 04:19:05;;;;;;;5.80;0.50;;;8.20;99.90;;;;;;5051568;28;21021;-67
2023/11/24 04:21:34;;;;;;;5.80;0.70;;;8.20;99.90;;;;;;5052084;28;20464;-67
2023/11/24 04:24:03;;;;;;;5.90;0.80;;;8.20;99.90;;;;;;5051333;28;20444;-67
2023/11/24 04:26:31;;;;;;;5.90;0.60;;;8.10;99.90;;;;;;5051695;28;20546;-67
2023/11/24 04:28:59;;;;;;;6.30;0.60;;;8.10;99.90;;;;;;5051457;28;20977;-66
2023/11/24 04:31:27;;;;;;;5.67;0.50;;;8.10;99.90;;;;;;5051552;28;20505;-67
2023/11/24 04:33:55;;;;;;;5.90;0.60;;;8.10;99.90;;;;;;5051250;28;20544;-66
2023/11/24 04:36:23;;;;;;;6.00;0.50;;;8.10;99.90;;;;;;5051791;28;20639;-65
2023/11/24 04:38:51;;;;;;;5.90;0.60;;;8.10;99.90;;;;;;5051401;28;20444;-67
2023/11/24 04:41:20;;;;;;;6.10;0.40;;;8.10;99.90;;;;;;5051669;28;20454;-68
2023/11/24 04:43:48;;;;;;;6.10;0.60;;;8.10;99.90;;;;;;5051071;28;20478;-66
2023/11/24 04:46:16;;;;;;;7.63;0.80;;;8.10;99.90;;;;;;5051257;28;20488;-67
2023/11/24 04:48:44;;;;;;;6.93;0.63;;;7.80;99.90;;;;;;5051162;28;20509;-67
2023/11/24 04:51:12;;;;;;;6.00;0.70;;;7.40;99.90;;;;;;5051608;28;20857;-68
2023/11/24 04:53:41;;;;;;;6.30;0.87;;;7.00;99.90;;;;;;5051332;28;20458;-67
2023/11/24 04:56:09;;;;;;;8.33;1.40;;;6.90;99.90;;;;;;5051346;28;20457;-67
2023/11/24 04:58:39;;;;;;;10.00;1.20;;;6.90;99.90;;;;;;5050807;28;20516;-67
2023/11/24 05:01:07;;;;;;;7.47;0.90;;;6.80;99.90;;;;;;5051256;28;20446;-67
2023/11/24 05:03:35;;;;;;;6.67;1.10;;;6.70;99.90;;;;;;5051215;28;20531;-68
2023/11/24 05:06:03;;;;;;;9.77;1.40;;;6.70;99.90;;;;;;5051077;28;20446;-69
2023/11/24 05:08:31;;;;;;;6.80;1.40;;;6.70;99.90;;;;;;5050905;28;21018;-69
2023/11/24 05:10:59;;;;;;;6.83;1.00;;;6.70;99.90;;;;;;5050812;28;20463;-69
2023/11/24 05:13:27;;;;;;;8.93;1.60;;;6.60;99.90;;;;;;5050818;28;20464;-67
2023/11/24 05:15:57;;;;;;;7.30;1.10;;;6.60;99.90;;;;;;5050537;28;20501;-67
2023/11/24 05:18:25;;;;;;;6.50;1.13;;;6.60;99.90;;;;;;5050574;28;20447;-67
2023/11/24 05:20:54;;;;;;;11.10;1.77;;;6.60;99.90;;;;;;5051439;28;20565;-67
2023/11/24 05:23:22;;;;;;;8.30;1.70;;;6.50;99.90;;;;;;5050429;28;20915;-69
2023/11/24 05:25:50;;;;;;;10.83;1.83;;;6.50;99.90;;;;;;5050623;28;20462;-67
2023/11/24 05:28:18;;;;;;;9.53;1.60;;;6.50;99.90;;;;;;5050897;28;20545;-67
2023/11/24 05:30:46;;;;;;;14.53;2.03;;;6.50;99.90;;;;;;5053490;28;20465;-66
2023/11/24 05:33:15;;;;;;;9.20;1.50;;;6.40;99.90;;;;;;5051120;28;21072;-68
2023/11/24 05:35:43;;;;;;;14.60;1.80;;;6.40;99.90;;;;;;5050650;28;20462;-68
2023/11/24 05:38:11;;;;;;;10.20;1.73;;;6.30;99.90;;;;;;5050246;28;20469;-67
2023/11/24 05:40:39;;;;;;;8.93;1.80;;;6.30;99.90;;;;;;5050576;28;20476;-68
2023/11/24 05:43:07;;;;;;;11.33;2.03;;;6.30;99.90;;;;;;5050247;28;20556;-66
2023/11/24 05:45:35;;;;;;;14.17;2.47;;;6.30;99.90;;;;;;5050230;28;20474;-68
2023/11/24 05:48:03;;;;;;;12.60;2.80;;;6.30;99.90;;;;;;5044856;28;20527;-67
2023/11/24 05:50:33;;;;;;;11.50;2.50;;;6.40;99.90;;;;;;5050284;28;20466;-67
2023/11/24 05:53:00;;;;;;;13.10;2.37;;;6.40;99.90;;;;;;5050001;28;20468;-68
2023/11/24 05:55:28;;;;;;;12.70;2.03;;;6.30;99.90;;;;;;5049693;28;20713;-67
2023/11/24 05:57:56;;;;;;;12.23;2.70;;;6.40;99.90;;;;;;5047221;28;20940;-66
2023/11/24 06:00:25;;;;;;;13.03;1.90;;;6.30;99.90;;;;;;5050083;28;20503;-68
2023/11/24 06:02:53;;;;;;;11.17;1.90;;;6.30;99.90;;;;;;5042187;28;20460;-66
2023/11/24 06:05:21;;;;;;;9.30;1.60;;;6.30;99.90;;;;;;5045482;28;20928;-67
2023/11/24 06:07:50;;;;;;;10.07;1.83;;;6.30;99.90;;;;;;5044438;28;20868;-67
2023/11/24 06:10:22;;;;;;;17.73;2.20;;;6.30;99.90;;;;;;5046026;28;20472;-65
2023/11/24 06:12:50;;;;;;;13.33;1.87;;;6.30;99.90;;;;;;5048852;28;20455;-66
2023/11/24 06:15:18;;;;;;;9.73;1.80;;;6.20;99.90;;;;;;5046142;28;20874;-66
2023/11/24 06:17:48;;;;;;;17.97;1.90;;;6.20;99.90;;;;;;5040209;28;20554;-69
2023/11/24 06:20:16;;;;;;;13.07;2.53;;;6.30;99.90;;;;;;5041466;28;20826;-67
2023/11/24 06:22:44;;;;;;;9.43;1.63;;;6.30;99.90;;;;;;5046960;28;20451;-66
2023/11/24 06:25:14;;;;;;;11.47;1.50;;;6.30;99.90;;;;;;5046551;28;20466;-67
2023/11/24 06:27:43;;;;;;;10.67;1.30;;;6.30;99.90;;;;;;5046072;28;20480;-68
2023/11/24 06:30:12;;;;;;;8.17;1.70;;;6.30;99.90;;;;;;5047862;28;20467;-66
2023/11/24 06:32:40;;;;;;;11.57;2.47;;;6.30;99.90;;;;;;5047369;28;20950;-68
2023/11/24 06:35:10;;;;;;;11.87;2.43;;;6.30;99.90;;;;;;5046034;28;20470;-68
2023/11/24 06:37:40;;;;;;;10.00;2.07;;;6.30;99.90;;;;;;5030555;28;20502;-67
2023/11/24 06:40:11;;;;;;;9.80;1.60;;;6.40;99.90;;;;;;5045192;28;20473;-66
2023/11/24 06:42:41;;;;;;;12.53;1.80;;;6.40;99.90;;;;;;5048453;28;20458;-68
2023/11/24 06:45:12;;;;;;;12.53;2.40;;;6.30;99.90;;;;;;5046373;28;20446;-67
2023/11/24 06:47:41;;;;;;;11.07;1.57;;;6.40;99.90;;;;;;5047358;28;20477;-67
2023/11/24 06:50:12;;;;;;;12.07;2.37;;;6.50;99.90;;;;;;5048707;28;20878;-67
2023/11/24 06:52:40;;;;;;;8.53;1.63;;;6.40;99.90;;;;;;5049199;28;20459;-65
2023/11/24 06:55:10;;;;;;;9.00;1.83;;;6.50;99.90;;;;;;5048403;28;20455;-65
2023/11/24 06:57:39;;;;;;;8.43;2.87;;;6.50;99.90;;;;;;5048975;28;20446;-64
2023/11/24 07:00:16;;;;;;;12.17;1.63;;;6.60;99.90;;;;;;5048734;28;20475;-65
2023/11/24 07:02:46;;;;;;;10.30;1.77;;;6.50;99.90;;;;;;5048656;28;20493;-66
2023/11/24 07:05:14;;;;;;;7.67;1.50;;;6.50;99.90;;;;;;5048050;28;20838;-66
2023/11/24 07:07:42;;;;;;;8.50;2.57;;;6.60;99.90;;;;;;5048061;28;20490;-67
2023/11/24 07:10:13;;;;;;;12.37;1.80;;;6.70;99.90;;;;;;5048654;28;20481;-66
2023/11/24 07:12:43;;;;;;;13.47;1.87;;;6.70;99.90;;;;;;5048754;28;20494;-66
2023/11/24 07:15:13;;;;;;;11.10;2.17;;;6.70;99.90;;;;;;5048139;28;20447;-66
2023/11/24 07:17:41;;;;;;;9.87;1.53;;;6.60;99.90;;;;;;5047970;28;20447;-66
2023/11/24 07:20:11;;;;;;;11.07;1.50;;;6.60;99.90;;;;;;5048348;28;20837;-66
2023/11/24 07:22:40;;;;;;;8.80;1.50;;;6.60;99.90;;;;;;5048128;28;20466;-66
2023/11/24 07:25:09;;;;;;;9.30;1.70;;;6.70;99.90;;;;;;5047848;28;20509;-66
2023/11/24 07:27:37;;;;;;;10.40;1.77;;;6.70;99.90;;;;;;5048234;28;20910;-65
2023/11/24 07:30:06;;;;;;;8.20;1.30;;;6.80;99.90;;;;;;5048626;28;20874;-66
2023/11/24 07:32:35;;;;;;;11.63;1.80;;;6.80;99.90;;;;;;5048309;28;20455;-66
2023/11/24 07:35:04;;;;;;;12.63;2.43;;;6.80;99.90;;;;;;5047501;28;20458;-67
2023/11/24 07:37:32;;;;;;;9.83;1.90;;;6.70;99.90;;;;;;5047890;28;20959;-66
2023/11/24 07:40:06;;;;;;;9.07;1.37;;;6.60;99.90;;;;;;5048783;28;20483;-65
2023/11/24 07:42:36;;;;;;;8.37;1.67;;;6.60;99.90;;;;;;5047980;28;20978;-67
2023/11/24 07:45:04;;;;;;;8.80;1.47;;;6.50;99.90;;;;;;5048019;28;20454;-68
2023/11/24 07:47:32;;;;;;;11.47;1.40;;;6.50;99.90;;;;;;5047550;28;20526;-65
2023/11/24 07:50:02;;;;;;;9.70;2.10;;;6.40;99.90;;;;;;5047636;28;20469;-67
2023/11/24 07:52:30;;;;;;;10.93;1.43;;;6.40;99.90;;;;;;5047705;28;20510;-65
2023/11/24 07:54:58;;;;;;;12.43;1.80;;;6.40;99.90;;;;;;5047191;28;20548;-67
2023/11/24 07:57:27;;;;;;;11.40;2.10;;;6.40;99.90;;;;;;5047815;28;20510;-67
2023/11/24 07:59:55;;;;;;;10.77;1.57;;;6.30;99.90;;;;;;5047168;28;20482;-67
2023/11/24 08:02:23;;;;;;;16.60;1.90;;;6.40;99.90;;;;;;5047778;28;20482;-67
2023/11/24 08:04:51;;;;;;;10.10;1.93;;;6.60;99.90;;;;;;5047209;28;20519;-67
2023/11/24 08:07:21;;;;;;;10.70;2.13;;;6.60;99.90;;;;;;5047875;28;20445;-67
2023/11/24 08:09:50;;;;;;;11.43;2.10;;;6.70;99.90;;;;;;5047525;28;20551;-66
2023/11/24 08:12:18;;;;;;;10.37;1.40;;;6.70;99.90;;;;;;5047696;28;20536;-66
2023/11/24 08:14:46;;;;;;;8.53;1.87;;;6.80;99.90;;;;;;5046767;28;20516;-67
2023/11/24 08:17:14;;;;;;;10.60;1.70;;;6.80;99.90;;;;;;5047850;28;20510;-66
2023/11/24 08:19:42;;;;;;;10.30;2.13;;;6.90;99.90;;;;;;5047401;28;20531;-66
2023/11/24 08:22:10;;;;;;;12.10;1.77;;;7.00;99.90;;;;;;5047786;28;20497;-67
2023/11/24 08:24:39;;;;;;;16.27;1.80;;;7.00;99.90;;;;;;5047012;28;20452;-65
2023/11/24 08:27:07;;;;;;;11.00;2.27;;;7.00;99.90;;;;;;5047455;28;20456;-67
2023/11/24 08:29:35;;;;;;;9.07;1.80;;;7.00;99.90;;;;;;5047254;28;20496;-66
2023/11/24 08:32:04;;;;;;;13.37;3.30;;;7.00;99.90;;;;;;5047773;28;20458;-66
2023/11/24 08:34:32;;;;;;;10.63;2.50;;;7.20;99.90;;;;;;5046832;28;20470;-66
2023/11/24 08:37:02;;;;;;;8.40;2.03;;;7.20;99.90;;;;;;5047556;28;20835;-66
2023/11/24 08:39:30;;;;;;;9.33;1.80;;;7.30;99.90;;;;;;5047206;28;20809;-66
2023/11/24 08:41:59;;;;;;;10.63;2.73;;;7.30;99.90;;;;;;5047988;28;20491;-66
2023/11/24 08:44:27;;;;;;;9.60;1.80;;;7.20;99.90;;;;;;5047298;28;20568;-67
2023/11/24 08:46:56;;;;;;;8.80;1.50;;;7.20;99.90;;;;;;5047799;28;20955;-65
2023/11/24 08:49:24;;;;;;;10.60;2.00;;;7.20;99.90;;;;;;5048943;28;20480;-65
2023/11/24 08:51:52;;;;;;;9.77;2.20;;;7.20;99.90;;;;;;5049362;28;20525;-65
2023/11/24 08:54:22;;;;;;;7.87;1.83;;;7.20;99.90;;;;;;5048338;28;20926;-64
2023/11/24 08:56:51;;;;;;;11.90;4.30;;;7.20;99.90;;;;;;5049512;28;20448;-66
2023/11/24 08:59:23;;;;;;;8.80;1.83;;;7.20;99.90;;;;;;5052289;28;20503;-66
2023/11/24 09:01:50;;;;;;;8.73;1.87;;;7.30;99.90;;;;;;5051471;28;20445;-65
2023/11/24 09:04:20;;;;;;;8.20;1.93;;;7.40;99.90;;;;;;5048661;28;20450;-67
2023/11/24 09:06:50;;;;;;;10.20;2.13;;;7.50;99.90;;;;;;5049855;28;20451;-66
2023/11/24 09:09:18;;;;;;;13.07;2.30;;;7.60;99.90;;;;;;5049874;28;20495;-66
2023/11/24 09:11:46;;;;;;;12.47;1.97;;;7.70;99.90;;;;;;5050306;28;20442;-67
2023/11/24 09:14:14;;;;;;;7.53;1.60;;;7.80;99.90;;;;;;5049584;28;20452;-66
2023/11/24 09:16:44;;;;;;;7.77;2.00;;;7.80;99.90;;;;;;5049935;28;20444;-65
2023/11/24 09:19:12;;;;;;;7.93;1.37;;;7.80;99.90;;;;;;5049240;28;20563;-65
2023/11/24 09:21:40;;;;;;;7.00;2.03;;;7.80;99.90;;;;;;5049943;28;20557;-65
2023/11/24 09:24:10;;;;;;;8.67;1.60;;;7.80;99.90;;;;;;5049181;28;20456;-66
2023/11/24 09:26:38;;;;;;;13.40;1.90;;;7.80;99.90;;;;;;5049606;28;20459;-65
2023/11/24 09:29:06;;;;;;;9.47;1.97;;;7.80;99.90;;;;;;5049698;28;20490;-66
2023/11/24 09:31:35;;;;;;;9.30;2.10;;;7.80;99.90;;;;;;5048971;28;20444;-66
2023/11/24 09:34:04;;;;;;;11.63;1.97;;;7.90;99.90;;;;;;5049841;28;20455;-66
2023/11/24 09:36:32;;;;;;;12.27;2.97;;;8.00;99.90;;;;;;5050319;28;20447;-65
2023/11/24 09:39:00;;;;;;;10.27;1.53;;;8.00;99.90;;;;;;5049826;28;20888;-65
2023/11/24 09:41:29;;;;;;;11.30;1.57;;;8.00;99.90;;;;;;5050412;28;20443;-66
2023/11/24 09:43:59;;;;;;;10.00;1.90;;;8.00;99.90;;;;;;5049481;28;21079;-66
2023/11/24 09:46:27;;;;;;;12.53;2.70;;;7.90;99.90;;;;;;5050179;28;20452;-66
2023/11/24 09:49:09;;;;;;;10.13;2.33;;;7.80;99.90;;;;;;5049831;28;21003;-66
2023/11/24 09:51:39;;;;;;;9.33;1.80;;;7.80;99.90;;;;;;5050282;28;20526;-65
2023/11/24 09:54:08;;;;;;;11.67;2.00;;;7.80;99.90;;;;;;5049849;28;20872;-65
2023/11/24 09:56:40;;;;;;;14.80;2.07;;;7.80;99.90;;;;;;5050213;28;20526;-66
2023/11/24 09:59:09;;;;;;;10.07;1.97;;;7.80;99.90;;;;;;5049640;28;20483;-67
2023/11/24 10:01:37;;;;;;;13.20;2.10;;;7.80;99.90;;;;;;5050060;28;20450;-65
2023/11/24 10:04:07;;;;;;;9.80;2.00;;;7.80;99.90;;;;;;5049193;28;20840;-67
2023/11/24 10:06:38;;;;;;;11.50;3.13;;;7.90;99.90;;;;;;5050414;28;21033;-65
2023/11/24 10:09:10;;;;;;;9.70;1.80;;;8.00;99.90;;;;;;5048672;28;20463;-65
2023/11/24 10:11:39;;;;;;;10.83;2.90;;;8.00;99.90;;;;;;5050128;28;20732;-65
2023/11/24 10:14:11;;;;;;;9.83;2.10;;;8.20;99.90;;;;;;5049264;28;20522;-65
2023/11/24 10:16:41;;;;;;;16.63;2.80;;;8.20;99.90;;;;;;5049878;28;20937;-66
2023/11/24 10:19:15;;;;;;;9.83;2.50;;;8.40;99.90;;;;;;5049463;28;20487;-66
2023/11/24 10:21:52;;;;;;;11.93;2.07;;;8.60;99.90;;;;;;5048848;28;20506;-66
2023/11/24 10:24:25;;;;;;;15.97;3.10;;;8.90;99.90;;;;;;5048121;28;20440;-66
2023/11/24 10:26:53;;;;;;;11.77;2.00;;;8.90;99.90;;;;;;5048509;28;20485;-65
2023/11/24 10:29:24;;;;;;;10.03;2.50;;;8.90;99.90;;;;;;5048350;28;20483;-66
2023/11/24 10:31:52;;;;;;;9.77;1.93;;;8.60;99.90;;;;;;5048623;28;20479;-65
2023/11/24 10:34:24;;;;;;;8.20;1.87;;;8.10;99.90;;;;;;5047316;28;20447;-66
2023/11/24 10:36:54;;;;;;;7.83;1.67;;;7.70;99.90;;;;;;5048580;28;20546;-66
2023/11/24 10:39:25;;;;;;;8.33;1.40;;;7.30;99.90;;;;;;5047968;28;20556;-65
2023/11/24 10:41:55;;;;;;;13.10;2.70;;;7.20;99.90;;;;;;5048253;28;20442;-67
2023/11/24 10:44:24;;;;;;;12.20;2.93;;;7.20;99.90;;;;;;5047717;28;20819;-66
2023/11/24 10:47:01;;;;;;;13.00;2.40;;;7.30;99.90;;;;;;5048264;28;20959;-65
2023/11/24 10:49:35;;;;;;;11.67;3.77;;;7.40;99.90;;;;;;5046993;28;20575;-65
2023/11/24 10:52:13;;;;;;;12.67;2.33;;;7.40;99.90;;;;;;5049147;28;20986;-67
2023/11/24 10:54:51;;;;;;;9.27;2.43;;;7.50;99.90;;;;;;5048731;28;20440;-65
2023/11/24 10:57:22;;;;;;;15.30;2.80;;;7.50;99.90;;;;;;5049166;28;20442;-65
2023/11/24 10:59:51;;;;;;;13.10;2.70;;;7.50;99.90;;;;;;5048361;28;20478;-66
2023/11/24 11:02:20;;;;;;;10.00;1.77;;;7.60;99.90;;;;;;5048913;28;20442;-66
2023/11/24 11:05:00;;;;;;;11.73;2.63;;;7.70;99.90;;;;;;5048546;28;20450;-66
2023/11/24 11:07:37;;;;;;;15.10;3.47;;;7.80;99.90;;;;;;5050411;28;20965;-66
2023/11/24 11:10:12;;;;;;;12.83;4.80;;;7.90;99.90;;;;;;5048112;28;21009;-66
2023/11/24 11:12:51;;;;;;;10.60;2.17;;;8.10;99.90;;;;;;5048617;28;20436;-65
2023/11/24 11:15:24;;;;;;;11.23;2.33;;;8.10;99.90;;;;;;5047883;28;20444;-66
2023/11/24 11:18:08;;;;;;;12.70;2.03;;;8.10;99.90;;;;;;5049710;28;20444;-66
2023/11/24 11:20:40;;;;;;;11.10;3.03;;;8.20;99.90;;;;;;5048881;28;20499;-65
2023/11/24 11:23:10;;;;;;;9.60;2.33;;;8.30;99.90;;;;;;5050509;28;20459;-66
2023/11/24 11:25:38;;;;;;;11.83;2.10;;;8.40;99.90;;;;;;5047179;28;20869;-66
2023/11/24 11:28:45;;;;;;;9.80;1.73;;;8.40;99.90;;;;;;5047095;28;20448;-65
2023/11/24 11:31:27;;;;;;;11.40;2.10;;;8.20;99.90;;;;;;5047290;28;20880;-66
2023/11/24 11:33:55;;;;;;;9.90;2.13;;;8.10;99.90;;;;;;5046619;28;20440;-66
2023/11/24 11:36:29;;;;;;;10.60;2.07;;;8.00;99.90;;;;;;5047332;28;20458;-67
2023/11/24 11:38:57;;;;;;;10.33;2.27;;;8.00;99.90;;;;;;5045621;28;20806;-66
2023/11/24 11:41:38;;;;;;;10.03;1.97;;;8.00;99.90;;;;;;5048443;28;20549;-67
2023/11/24 11:44:17;;;;;;;11.77;1.60;;;8.00;99.90;;;;;;5047612;28;20432;-66
2023/11/24 11:47:08;;;;;;;9.10;1.60;;;7.90;99.90;;;;;;5046937;28;20467;-65
2023/11/24 11:49:40;;;;;;;9.43;1.93;;;7.90;99.90;;;;;;5046824;28;20552;-67
2023/11/24 11:52:11;;;;;;;9.50;1.93;;;7.80;99.90;;;;;;5047332;28;20519;-66
2023/11/24 11:54:40;;;;;;;12.40;2.40;;;7.80;99.90;;;;;;5046205;28;20442;-65
2023/11/24 11:57:10;;;;;;;11.90;2.30;;;7.80;99.90;;;;;;5046914;28;20449;-65
2023/11/24 11:59:38;;;;;;;10.13;1.83;;;7.80;99.90;;;;;;5046244;28;20524;-66
2023/11/24 12:02:07;;;;;;;11.63;2.00;;;7.70;99.90;;;;;;5047072;28;20431;-65
2023/11/24 12:04:36;;;;;;;9.73;2.03;;;7.70;99.90;;;;;;5046475;28;20535;-65
2023/11/24 12:07:10;;;;;;;8.60;1.60;;;7.60;99.90;;;;;;5046912;28;20800;-66
2023/11/24 12:09:39;;;;;;;12.33;1.70;;;7.50;99.90;;;;;;5046440;28;20899;-66
2023/11/24 12:12:07;;;;;;;8.47;1.70;;;7.60;99.90;;;;;;5046917;28;20490;-66
2023/11/24 12:14:41;;;;;;;9.97;2.30;;;7.50;99.90;;;;;;5045843;28;20503;-66
2023/11/24 12:17:10;;;;;;;14.67;4.03;;;7.40;99.90;;;;;;5046398;28;20877;-66
2023/11/24 12:19:40;;;;;;;11.83;1.80;;;7.30;99.90;;;;;;5047445;28;20472;-65
2023/11/24 12:22:11;;;;;;;12.10;2.97;;;7.30;99.90;;;;;;5048076;28;20892;-66
2023/11/24 12:24:40;;;;;;;10.93;2.20;;;7.40;99.90;;;;;;5047056;28;20447;-65
2023/11/24 12:27:11;;;;;;;12.20;2.00;;;7.40;99.90;;;;;;5046679;28;20465;-65
2023/11/24 12:29:41;;;;;;;10.50;2.20;;;7.40;99.90;;;;;;5046158;28;20473;-66
2023/11/24 12:32:09;;;;;;;8.70;2.20;;;7.30;99.90;;;;;;5047930;28;20911;-66
2023/11/24 12:34:41;;;;;;;10.70;1.67;;;7.30;99.90;;;;;;5049783;28;20461;-64
2023/11/24 12:37:12;;;;;;;7.00;1.23;;;7.30;99.90;;;;;;5050730;28;20505;-65
2023/11/24 12:39:40;;;;;;;9.77;2.03;;;7.30;99.90;;;;;;5050169;28;20471;-65
2023/11/24 12:42:10;;;;;;;11.50;2.57;;;7.30;99.90;;;;;;5050412;28;20528;-66
2023/11/24 12:44:39;;;;;;;11.90;1.77;;;7.30;99.90;;;;;;5049467;28;20447;-65
2023/11/24 12:47:12;;;;;;;9.40;1.57;;;7.40;99.90;;;;;;5050688;28;20543;-64
2023/11/24 12:50:00;;;;;;;8.67;1.53;;;7.30;99.90;;;;;;5046330;28;21210;-66
2023/11/24 12:52:31;;;;;;;7.60;1.57;;;7.30;99.90;;;;;;5050191;28;20497;-65
2023/11/24 12:55:01;;;;;;;8.10;1.20;;;7.30;99.90;;;;;;5049083;28;20444;-66
2023/11/24 12:57:29;;;;;;;8.67;1.83;;;7.20;99.90;;;;;;5051454;28;20550;-65
2023/11/24 13:00:05;;;;;;;11.10;1.50;;;7.20;99.90;;;;;;5050475;28;20484;-65
2023/11/24 13:02:33;;;;;;;9.90;1.77;;;7.10;99.90;;;;;;5051209;28;20463;-64
2023/11/24 13:05:01;;;;;;;9.33;1.37;;;7.00;99.90;;;;;;5050571;28;21040;-66